Impacts TAF Board
For situational awareness. Not to be used for flight planning purposes.
IDs:

KIAD - Washington/Dulles In, VA, US

Issued at 1743 UTC 18 Jun 2019
Updated at 1859 UTC 18 Jun 2019
Potential Impact None Slight Moderate High
Time1852Z 18/19Z 18/20Z 18/21Z 18/22Z 18/23Z 19/00Z 19/01Z 19/02Z 19/03Z 19/04Z 19/05Z 19/06Z 19/07Z>>
Type OBS PRVL PRVL PRVL PRVL PRVL PRVL PRVL PRVL PRVL PRVL PRVL PRVL PRVL
VIS 10 5 5 5 5 5 5 5 5 6 6 6 6 6
CIG 110 40 40 40 40 40 40 40 40 35 35 35 35 35
Cover BKN OVC OVC OVC OVC OVC OVC OVC OVC OVC OVC OVC OVC OVC
FltCat VFR MVFR MVFR MVFR MVFR MVFR MVFR MVFR MVFR VFR VFR VFR VFR VFR
WX -- -SHRA VCTS -SHRA VCTS -SHRA VCTS -SHRA VCTS -SHRA VCTS -SHRA VCTS -SHRA VCTS -SHRA VCTS -SHRA -SHRA -SHRA -SHRA -SHRA
WDir 270 280 280 280 280 280 280 280 280 190 190 190 190 190
WSpd 9 12 12 12 12 12 12 12 12 4 4 4 4 4
WGst -- 18 18 18 18 18 18 18 18 -- -- -- -- --
Raw TAF
KIAD 181743Z 1818/1924 28012G18KT 5SM -SHRA VCTS SCT025CB OVC040
  FM190300 19004KT 6SM -SHRA SCT020 OVC035
  FM190900 19004KT 5SM -SHRA OVC020
  FM191400 21004KT 6SM BR SCT020 OVC040
  FM191600 20004KT P6SM SCT025 OVC040
  FM192100 20006KT 6SM -SHRA VCTS SCT025CB OVC030


Raw METAR
KIAD 181852Z 27009KT 10SM FEW035 BKN110 BKN200 29/19 A2991 RMK AO2 SLP125 T02890189
KIAD 181752Z 28009KT 10SM SCT011 BKN035TCU BKN110 BKN220 29/19 A2993 RMK AO2 SLP132 TCU OHD T02940194 10294 20217 58004
KIAD 181652Z COR 28012G18KT 10SM SCT011 BKN035 BKN110 28/18 A2994 RMK AO2 SLP136 T02830183
KIAD 181552Z 23004KT 10SM SCT010 SCT040 BKN100 BKN200 27/22 A2995 RMK AO2 SLP138 T02670217

METAR Board
Radar Display
Forecast Discussion
For situational awareness. Not to be used for flight planning purposes.